Time;durP1;ratioP1;P1;durP2;ratioP2;P2;SDS_P1;SDS_P2;PMS_P1;PMS_P2;Temp;Humidity;BMP_temperature;BMP_pressure;BME280_temperature;BME280_humidity;BME280_pressure;Samples;Min_cycle;Max_cycle;Signal;HPM_P1;HPM_P2
2021/12/29 00:00:26;;;;;;;9.65;7.20;;;;;;;8.15;100.00;99868.75;10540625;28;20433;-62
2021/12/29 00:05:29;;;;;;;14.65;7.22;;;;;;;8.21;100.00;99879.75;10540965;28;20056;-61
2021/12/29 00:10:32;;;;;;;12.60;8.57;;;;;;;8.13;100.00;99888.84;10540356;28;20067;-61
2021/12/29 00:15:36;;;;;;;11.32;7.63;;;;;;;8.20;100.00;99902.34;10540733;28;20051;-61
2021/12/29 00:20:38;;;;;;;9.30;7.80;;;;;;;8.11;100.00;99924.63;10540206;28;20050;-61
2021/12/29 00:25:41;;;;;;;15.27;8.63;;;;;;;8.15;100.00;99944.38;10540525;28;20055;-61
2021/12/29 00:30:44;;;;;;;15.10;8.05;;;;;;;8.07;100.00;99949.22;10539962;28;20051;-60
2021/12/29 00:35:47;;;;;;;17.08;8.07;;;;;;;7.99;100.00;99973.13;10540330;28;20135;-62
2021/12/29 00:40:49;;;;;;;16.48;7.65;;;;;;;8.10;100.00;99984.66;10538599;28;20051;-61
2021/12/29 00:45:52;;;;;;;18.23;8.85;;;;;;;8.13;100.00;99998.34;10539386;28;20055;-61
2021/12/29 00:50:54;;;;;;;14.45;8.20;;;;;;;8.12;100.00;100007.13;10538524;28;20048;-61
2021/12/29 00:55:56;;;;;;;15.40;8.32;;;;;;;8.05;100.00;100018.00;10537599;28;20067;-61
2021/12/29 01:01:00;;;;;;;17.48;8.20;;;;;;;8.07;100.00;100029.16;10521893;28;20048;-60
2021/12/29 01:06:03;;;;;;;17.08;9.05;;;;;;;8.13;100.00;100039.25;10546510;28;20055;-61
2021/12/29 01:11:06;;;;;;;25.85;10.32;;;;;;;8.03;100.00;100061.56;10547836;28;20060;-62
2021/12/29 01:21:11;;;;;;;22.08;9.95;;;;;;;8.09;100.00;100071.66;10547516;28;20044;-61
2021/12/29 01:26:13;;;;;;;16.88;9.38;;;;;;;8.13;100.00;100086.19;10547027;28;20067;-62
2021/12/29 01:31:17;;;;;;;24.60;10.93;;;;;;;8.11;100.00;100103.69;10546612;28;20511;-61
2021/12/29 01:36:20;;;;;;;26.77;11.00;;;;;;;8.11;100.00;100114.13;10546501;28;20044;-60
2021/12/29 01:41:22;;;;;;;21.70;10.13;;;;;;;8.09;100.00;100139.44;10546414;28;20048;-61
2021/12/29 01:46:24;;;;;;;27.45;9.98;;;;;;;8.11;100.00;100146.22;10545803;28;20054;-60
2021/12/29 01:51:29;;;;;;;22.00;8.95;;;;;;;8.07;100.00;100152.56;10545784;28;20452;-60
2021/12/29 01:56:32;;;;;;;27.80;11.18;;;;;;;8.16;100.00;100159.00;10545587;28;20040;-61
2021/12/29 02:01:34;;;;;;;23.27;11.88;;;;;;;8.14;100.00;100163.50;10544949;28;20067;-60
2021/12/29 02:06:37;;;;;;;24.48;11.98;;;;;;;8.10;100.00;100155.00;10545237;28;20056;-61
2021/12/29 02:11:42;;;;;;;26.27;12.07;;;;;;;8.11;100.00;100169.69;10544564;28;20052;-60
2021/12/29 02:16:44;;;;;;;24.58;13.75;;;;;;;8.13;100.00;100174.84;10543285;28;20048;-61
2021/12/29 02:27:25;;;;;;;19.33;11.45;;;;;;;8.07;100.00;100190.81;10541516;28;20052;-61
2021/12/29 02:32:28;;;;;;;22.48;11.35;;;;;;;8.06;100.00;100197.81;10544209;28;20047;-61
2021/12/29 02:37:30;;;;;;;20.17;12.63;;;;;;;8.08;100.00;100205.53;10543167;28;20047;-60
2021/12/29 02:42:39;;;;;;;15.40;10.73;;;;;;;8.05;100.00;100229.16;10543521;28;20391;-60
2021/12/29 02:47:42;;;;;;;25.58;10.73;;;;;;;8.07;100.00;100222.09;10544553;28;20052;-60
2021/12/29 02:52:45;;;;;;;18.92;10.00;;;;;;;8.10;100.00;100216.72;10525479;28;20040;-61
2021/12/29 02:57:48;;;;;;;19.92;11.48;;;;;;;8.06;100.00;100218.66;10542744;28;20480;-61
2021/12/29 03:02:50;;;;;;;27.35;12.60;;;;;;;8.05;100.00;100224.78;10543027;28;20055;-61
2021/12/29 03:07:54;;;;;;;17.90;10.02;;;;;;;8.04;100.00;100220.53;10543594;28;20090;-61
2021/12/29 03:12:58;;;;;;;26.55;11.85;;;;;;;8.02;100.00;100237.16;10542445;28;20052;-61
2021/12/29 03:18:00;;;;;;;24.63;11.50;;;;;;;8.07;100.00;100248.16;10542443;28;20044;-61
2021/12/29 03:23:03;;;;;;;25.20;11.75;;;;;;;8.05;100.00;100257.84;10542098;28;20055;-60
2021/12/29 03:28:06;;;;;;;22.55;10.75;;;;;;;8.10;100.00;100259.28;10540161;28;20051;-61
2021/12/29 03:33:09;;;;;;;22.63;12.05;;;;;;;7.97;100.00;100279.16;10540744;28;20125;-60
2021/12/29 03:38:17;;;;;;;25.30;11.07;;;;;;;8.03;100.00;100293.59;10540674;28;20044;-61
2021/12/29 03:43:20;;;;;;;26.98;13.75;;;;;;;8.04;100.00;100297.91;10540984;28;20051;-61
2021/12/29 03:48:25;;;;;;;21.38;11.93;;;;;;;8.00;100.00;100316.31;10540160;28;20483;-61
2021/12/29 03:53:28;;;;;;;18.00;11.20;;;;;;;8.07;100.00;100322.03;10541727;28;20078;-61
2021/12/29 03:58:30;;;;;;;25.45;15.32;;;;;;;8.00;100.00;100328.47;10540858;28;20487;-61
2021/12/29 04:03:32;;;;;;;17.20;12.43;;;;;;;7.99;100.00;100347.69;10540674;28;20055;-61
2021/12/29 04:08:35;;;;;;;20.17;12.55;;;;;;;7.97;100.00;100336.50;10540083;28;20052;-61
2021/12/29 04:13:37;;;;;;;13.80;10.38;;;;;;;7.95;100.00;100328.75;10540012;28;20443;-61
2021/12/29 04:18:45;;;;;;;16.15;10.70;;;;;;;7.94;100.00;100340.09;10539668;28;20044;-60
2021/12/29 04:23:47;;;;;;;18.65;11.60;;;;;;;7.92;100.00;100348.94;10540070;28;20056;-61
2021/12/29 04:28:50;;;;;;;20.20;12.60;;;;;;;7.95;100.00;100367.88;10540039;28;20480;-60
2021/12/29 04:33:52;;;;;;;18.42;12.98;;;;;;;7.94;100.00;100368.78;10539604;28;20044;-61
2021/12/29 04:38:57;;;;;;;23.25;13.18;;;;;;;7.89;100.00;100377.78;10539626;28;20044;-60
2021/12/29 04:43:59;;;;;;;15.18;11.68;;;;;;;7.88;100.00;100382.13;10539597;28;20085;-60
2021/12/29 04:49:02;;;;;;;21.05;12.35;;;;;;;7.90;100.00;100388.13;10538084;28;20055;-61
2021/12/29 04:54:06;;;;;;;17.08;10.55;;;;;;;7.94;100.00;100386.19;10539289;28;20048;-61
2021/12/29 04:59:08;;;;;;;18.52;10.95;;;;;;;8.07;100.00;100400.25;10539545;28;20055;-61
2021/12/29 05:04:19;;;;;;;18.65;14.85;;;;;;;8.08;100.00;100414.13;10539116;28;20044;-61
2021/12/29 05:09:21;;;;;;;26.25;18.35;;;;;;;7.96;100.00;100426.88;10539369;28;20052;-61
2021/12/29 05:14:24;;;;;;;26.55;18.20;;;;;;;8.05;100.00;100435.16;10539041;28;20114;-61
2021/12/29 05:19:27;;;;;;;26.75;18.08;;;;;;;8.08;100.00;100430.59;10539315;28;20048;-60
2021/12/29 05:24:29;;;;;;;32.13;20.25;;;;;;;7.97;100.00;100428.56;10539056;28;20507;-60
2021/12/29 05:29:32;;;;;;;27.55;17.77;;;;;;;7.96;100.00;100428.66;10539379;28;20048;-60
2021/12/29 05:34:34;;;;;;;25.90;19.27;;;;;;;7.98;100.00;100427.66;10538607;28;20048;-60
2021/12/29 05:39:37;;;;;;;23.05;18.67;;;;;;;7.96;100.00;100432.09;10538560;28;20054;-61
2021/12/29 05:44:39;;;;;;;29.10;21.50;;;;;;;8.02;100.00;100440.50;10538209;28;20483;-61
2021/12/29 05:49:41;;;;;;;24.27;18.75;;;;;;;7.95;100.00;100437.38;10543402;28;20052;-61
2021/12/29 05:54:44;;;;;;;28.13;18.92;;;;;;;7.94;100.00;100441.75;10545193;28;20498;-60
2021/12/29 05:59:46;;;;;;;18.95;15.02;;;;;;;7.98;100.00;100447.66;10546003;28;20051;-61
2021/12/29 06:04:49;;;;;;;21.33;16.77;;;;;;;8.03;100.00;100457.84;10545505;28;20051;-61
2021/12/29 06:09:51;;;;;;;30.77;20.75;;;;;;;7.99;100.00;100462.38;10545889;28;20135;-60
2021/12/29 06:14:54;;;;;;;27.92;19.88;;;;;;;8.03;100.00;100466.50;10545158;28;20063;-60
2021/12/29 06:19:57;;;;;;;22.58;18.63;;;;;;;7.95;100.00;100469.53;10544931;28;20044;-60
2021/12/29 06:24:59;;;;;;;26.92;20.08;;;;;;;7.93;100.00;100478.34;10544667;28;20051;-61
2021/12/29 06:30:02;;;;;;;35.92;22.73;;;;;;;7.97;100.00;100487.69;10544244;28;20499;-61
2021/12/29 06:35:07;;;;;;;23.77;18.25;;;;;;;7.89;100.00;100493.28;10542725;28;20052;-60
2021/12/29 06:40:10;;;;;;;32.45;22.42;;;;;;;7.93;100.00;100507.84;10544093;28;20048;-61
2021/12/29 06:45:13;;;;;;;29.98;17.88;;;;;;;8.04;100.00;100503.88;10542285;28;20488;-61
2021/12/29 06:50:15;;;;;;;30.05;19.65;;;;;;;7.95;100.00;100510.38;10543611;28;20051;-60
2021/12/29 06:55:18;;;;;;;31.35;20.33;;;;;;;8.03;100.00;100507.38;10543457;28;20052;-60
2021/12/29 07:00:25;;;;;;;28.60;18.88;;;;;;;8.00;100.00;100513.59;10543265;28;20067;-60
2021/12/29 07:05:28;;;;;;;23.98;16.38;;;;;;;7.96;100.00;100528.56;10541798;28;20056;-59
2021/12/29 07:10:30;;;;;;;33.45;20.00;;;;;;;7.89;100.00;100529.78;10543560;28;20048;-60
2021/12/29 07:15:33;;;;;;;36.38;23.33;;;;;;;7.92;100.00;100550.50;10542509;28;20493;-60
2021/12/29 07:20:35;;;;;;;34.35;20.95;;;;;;;7.80;100.00;100553.69;10542340;28;20480;-60
2021/12/29 07:25:38;;;;;;;37.33;23.00;;;;;;;7.89;100.00;100548.03;10541942;28;20484;-61
2021/12/29 07:30:40;;;;;;;34.83;23.33;;;;;;;7.81;100.00;100563.22;10542080;28;20051;-60
2021/12/29 07:35:42;;;;;;;41.58;24.20;;;;;;;7.79;100.00;100580.69;10542042;28;20040;-60
2021/12/29 07:40:45;;;;;;;41.47;24.20;;;;;;;7.84;100.00;100590.91;10541873;28;20055;-60
2021/12/29 07:45:47;;;;;;;49.17;25.75;;;;;;;7.80;100.00;100593.66;10541318;28;20408;-60
2021/12/29 07:50:50;;;;;;;30.55;20.77;;;;;;;7.84;100.00;100602.16;10541270;28;20079;-61
2021/12/29 07:55:52;;;;;;;47.13;24.08;;;;;;;7.86;100.00;100604.69;10541024;28;20051;-60
2021/12/29 08:00:54;;;;;;;38.65;22.65;;;;;;;7.85;100.00;100600.38;10540894;28;20048;-60
2021/12/29 08:05:57;;;;;;;40.92;22.73;;;;;;;7.82;100.00;100601.41;10540892;28;20052;-60
2021/12/29 08:10:59;;;;;;;38.58;22.02;;;;;;;7.82;100.00;100599.63;10538169;28;20056;-60
2021/12/29 08:16:02;;;;;;;31.33;21.83;;;;;;;7.95;100.00;100596.41;10540633;28;20051;-60
2021/12/29 08:21:04;;;;;;;34.78;20.50;;;;;;;8.01;100.00;100606.53;10540303;28;20047;-60
2021/12/29 08:26:07;;;;;;;36.90;21.27;;;;;;;7.99;100.00;100616.22;10539881;28;20051;-60
2021/12/29 08:31:09;;;;;;;37.42;22.13;;;;;;;7.99;100.00;100618.81;10540164;28;20052;-59
2021/12/29 08:36:12;;;;;;;54.58;25.88;;;;;;;8.16;100.00;100615.38;10539825;28;20130;-59
2021/12/29 08:41:14;;;;;;;35.88;22.77;;;;;;;8.12;100.00;100609.47;10539743;28;20056;-59
2021/12/29 08:46:17;;;;;;;44.50;26.52;;;;;;;8.06;100.00;100608.94;10539537;28;20507;-59
2021/12/29 08:51:19;;;;;;;45.13;26.80;;;;;;;8.05;100.00;100602.00;10539551;28;20373;-59
2021/12/29 08:56:22;;;;;;;41.10;24.95;;;;;;;8.19;100.00;100608.22;10538356;28;20044;-59
2021/12/29 09:01:26;;;;;;;41.17;24.73;;;;;;;8.09;100.00;100624.44;10539331;28;20051;-59
2021/12/29 09:06:29;;;;;;;54.70;28.10;;;;;;;8.07;100.00;100621.88;10540103;28;20060;-60
2021/12/29 09:11:31;;;;;;;33.35;23.05;;;;;;;8.01;100.00;100616.97;10538980;28;20048;-60
2021/12/29 09:16:34;;;;;;;48.10;25.58;;;;;;;8.08;100.00;100625.34;10539407;28;20051;-59
2021/12/29 09:21:38;;;;;;;34.20;22.05;;;;;;;8.26;100.00;100616.59;10538839;28;20048;-59
2021/12/29 09:26:40;;;;;;;36.85;23.58;;;;;;;8.45;100.00;100624.34;10546791;28;20044;-60
2021/12/29 09:31:43;;;;;;;36.45;20.60;;;;;;;8.25;100.00;100606.22;10546592;28;20415;-60
2021/12/29 09:36:48;;;;;;;37.10;21.48;;;;;;;8.20;100.00;100619.50;10546964;28;20389;-60
2021/12/29 09:41:50;;;;;;;44.10;24.73;;;;;;;8.41;100.00;100604.53;10545434;28;20044;-60
2021/12/29 09:46:54;;;;;;;42.80;24.58;;;;;;;8.34;100.00;100608.38;10546517;28;20059;-60
2021/12/29 09:51:56;;;;;;;35.78;22.58;;;;;;;8.27;100.00;100604.38;10546236;28;20480;-60
2021/12/29 09:57:00;;;;;;;27.85;20.70;;;;;;;8.34;100.00;100601.41;10545657;28;20479;-60
2021/12/29 10:02:03;;;;;;;29.80;18.67;;;;;;;8.58;100.00;100608.06;10545621;28;20040;-60
2021/12/29 10:07:13;;;;;;;27.45;19.25;;;;;;;8.27;100.00;100615.69;10545851;28;20048;-59
2021/12/29 10:12:20;;;;;;;30.25;19.05;;;;;;;8.62;100.00;100601.75;10545321;28;20051;-59
2021/12/29 10:17:26;;;;;;;29.80;19.90;;;;;;;8.85;100.00;100608.38;10545031;28;20044;-60
2021/12/29 10:22:29;;;;;;;30.90;18.80;;;;;;;8.66;100.00;100617.19;10544386;28;20420;-59
2021/12/29 10:27:32;;;;;;;28.67;17.73;;;;;;;8.83;100.00;100618.91;10544433;28;20051;-59
2021/12/29 10:32:34;;;;;;;30.33;19.70;;;;;;;8.68;100.00;100620.56;10544578;28;20048;-59
2021/12/29 10:37:37;;;;;;;25.25;17.50;;;;;;;8.50;100.00;100603.25;10543891;28;20044;-59
2021/12/29 10:42:39;;;;;;;30.23;18.15;;;;;;;8.63;100.00;100593.84;10543873;28;20051;-59
2021/12/29 10:47:45;;;;;;;30.67;22.02;;;;;;;8.65;100.00;100567.66;10543780;28;20048;-59
2021/12/29 10:52:50;;;;;;;26.65;18.08;;;;;;;8.92;100.00;100570.56;10544006;28;20048;-59
2021/12/29 10:58:04;;;;;;;24.50;19.20;;;;;;;8.80;100.00;100564.25;10543369;28;20040;-59
2021/12/29 11:03:23;;;;;;;25.05;19.00;;;;;;;8.79;100.00;100585.19;10543650;28;20048;-59
2021/12/29 11:08:44;;;;;;;30.73;21.25;;;;;;;8.65;100.00;100581.56;10542891;28;20130;-60
2021/12/29 11:13:46;;;;;;;24.75;19.70;;;;;;;8.83;100.00;100579.75;10542784;28;20044;-60
2021/12/29 11:18:51;;;;;;;25.08;18.92;;;;;;;8.79;100.00;100600.88;10542597;28;20047;-59
2021/12/29 11:23:54;;;;;;;24.45;18.40;;;;;;;8.80;100.00;100620.84;10541049;28;20047;-59
2021/12/29 11:29:12;;;;;;;20.95;16.25;;;;;;;9.00;100.00;100607.56;10542367;28;20052;-60
2021/12/29 11:34:18;;;;;;;24.05;18.27;;;;;;;8.77;100.00;100605.34;10542337;28;20048;-59
2021/12/29 11:39:20;;;;;;;23.45;18.17;;;;;;;9.02;100.00;100626.59;10541787;28;20044;-60
2021/12/29 11:44:24;;;;;;;21.65;16.05;;;;;;;9.01;100.00;100604.03;10541697;28;20089;-60
2021/12/29 11:49:26;;;;;;;22.58;16.38;;;;;;;8.82;100.00;100579.81;10541214;28;20051;-60
2021/12/29 11:54:46;;;;;;;25.17;14.90;;;;;;;8.58;100.00;100582.81;10540832;28;20044;-60
2021/12/29 11:59:48;;;;;;;25.88;16.65;;;;;;;8.92;100.00;100584.47;10541141;28;20060;-60
2021/12/29 12:05:04;;;;;;;23.80;15.73;;;;;;;8.92;100.00;100573.19;10540683;28;20404;-59
2021/12/29 12:10:11;;;;;;;21.15;14.10;;;;;;;8.60;100.00;100559.25;10540958;28;20052;-60
2021/12/29 12:15:14;;;;;;;20.00;14.90;;;;;;;8.58;100.00;100572.38;10539390;28;20044;-59
2021/12/29 12:20:17;;;;;;;19.05;14.73;;;;;;;8.71;100.00;100572.56;10540382;28;20066;-59
2021/12/29 12:25:45;;;;;;;17.65;12.85;;;;;;;8.69;100.00;100561.34;10540183;28;20048;-60
2021/12/29 12:30:51;;;;;;;18.25;12.65;;;;;;;8.66;100.00;100546.72;10538358;28;20063;-60
2021/12/29 12:35:55;;;;;;;19.02;14.00;;;;;;;8.72;100.00;100541.19;10539387;28;20040;-60
2021/12/29 12:41:02;;;;;;;18.27;12.98;;;;;;;8.55;100.00;100544.66;10538814;28;20063;-60
2021/12/29 12:46:05;;;;;;;26.38;15.43;;;;;;;8.63;100.00;100528.59;10539646;28;20052;-60
2021/12/29 12:51:16;;;;;;;20.00;13.13;;;;;;;8.58;100.00;100508.91;10538259;28;20048;-60
2021/12/29 12:56:22;;;;;;;27.38;15.07;;;;;;;8.55;100.00;100496.84;10539809;28;20048;-60
2021/12/29 13:01:26;;;;;;;20.83;13.73;;;;;;;8.53;100.00;100503.94;10548566;28;20066;-59
2021/12/29 13:06:34;;;;;;;24.63;15.57;;;;;;;8.48;100.00;100511.16;10547833;28;20055;-60
2021/12/29 13:11:40;;;;;;;24.95;14.13;;;;;;;8.45;100.00;100503.50;10548097;28;20403;-60
2021/12/29 13:16:43;;;;;;;22.63;13.75;;;;;;;8.23;100.00;100501.16;10547739;28;20048;-59
2021/12/29 13:21:46;;;;;;;19.75;13.02;;;;;;;8.25;100.00;100497.50;10547283;28;20047;-60
2021/12/29 13:26:49;;;;;;;20.98;12.80;;;;;;;8.32;100.00;100511.06;10547715;28;20044;-59
2021/12/29 13:31:53;;;;;;;22.00;13.02;;;;;;;8.44;100.00;100488.75;10546617;28;20052;-59
2021/12/29 13:36:55;;;;;;;25.73;12.35;;;;;;;8.34;100.00;100467.53;10546915;28;20373;-60
2021/12/29 13:41:57;;;;;;;23.05;12.00;;;;;;;8.17;100.00;100466.66;10546278;28;20044;-60
2021/12/29 13:47:00;;;;;;;26.60;14.13;;;;;;;8.19;100.00;100464.78;10546636;28;20480;-59
2021/12/29 13:52:03;;;;;;;25.65;14.45;;;;;;;8.23;100.00;100452.41;10545849;28;20047;-59
2021/12/29 13:57:06;;;;;;;23.50;12.35;;;;;;;8.37;100.00;100449.06;10545997;28;20048;-60
2021/12/29 14:02:08;;;;;;;21.65;11.43;;;;;;;8.18;100.00;100444.00;10544756;28;20448;-59
2021/12/29 14:07:12;;;;;;;28.88;13.63;;;;;;;8.26;100.00;100454.03;10545495;28;20048;-59
2021/12/29 14:12:21;;;;;;;22.38;11.57;;;;;;;8.23;100.00;100460.25;10543355;28;20063;-59
2021/12/29 14:17:24;;;;;;;26.90;11.32;;;;;;;8.15;100.00;100445.03;10544280;28;20052;-60
2021/12/29 14:22:28;;;;;;;29.10;10.23;;;;;;;8.10;100.00;100447.03;10544845;28;20481;-60
2021/12/29 14:27:34;;;;;;;15.52;9.52;;;;;;;8.28;100.00;100450.41;10545103;28;20052;-60
2021/12/29 14:32:37;;;;;;;18.63;9.50;;;;;;;8.11;100.00;100430.44;10544535;28;20411;-60
2021/12/29 14:37:39;;;;;;;21.77;10.10;;;;;;;8.09;100.00;100405.41;10543626;28;20052;-59
2021/12/29 14:42:42;;;;;;;28.92;11.32;;;;;;;8.06;100.00;100413.38;10544082;28;20059;-59
2021/12/29 14:47:46;;;;;;;26.63;11.50;;;;;;;8.16;100.00;100415.41;10544510;28;20063;-60
2021/12/29 14:52:49;;;;;;;21.50;9.85;;;;;;;8.04;100.00;100410.00;10543617;28;20048;-59
2021/12/29 14:57:51;;;;;;;24.73;11.30;;;;;;;8.04;100.00;100402.19;10543431;28;20048;-59
2021/12/29 15:03:05;;;;;;;22.60;12.15;;;;;;;7.92;100.00;100381.06;10543204;28;20391;-59
2021/12/29 15:08:08;;;;;;;24.65;12.07;;;;;;;7.90;100.00;100364.66;10541970;28;20131;-59
2021/12/29 15:13:14;;;;;;;22.77;12.68;;;;;;;7.92;100.00;100354.97;10542745;28;20523;-59
2021/12/29 15:18:25;;;;;;;22.98;12.45;;;;;;;7.92;100.00;100352.38;10542698;28;20052;-60
2021/12/29 15:23:30;;;;;;;17.75;11.00;;;;;;;8.08;100.00;100344.56;10542388;28;20051;-60
2021/12/29 15:28:33;;;;;;;22.30;13.30;;;;;;;7.95;100.00;100361.78;10542428;28;20055;-59
2021/12/29 15:33:36;;;;;;;23.70;14.43;;;;;;;8.00;100.00;100391.91;10541906;28;20040;-60
2021/12/29 15:38:39;;;;;;;20.92;14.43;;;;;;;7.99;100.00;100376.34;10541397;28;20427;-60
2021/12/29 15:43:42;;;;;;;19.73;13.52;;;;;;;7.97;100.00;100373.81;10541560;28;20052;-59
2021/12/29 15:48:44;;;;;;;21.90;13.32;;;;;;;8.03;100.00;100366.59;10541766;28;20055;-59
2021/12/29 15:53:48;;;;;;;17.25;14.60;;;;;;;7.99;100.00;100369.38;10541171;28;20052;-60
2021/12/29 15:58:52;;;;;;;18.85;13.50;;;;;;;8.05;100.00;100352.53;10541536;28;20052;-59
2021/12/29 16:03:59;;;;;;;16.10;13.43;;;;;;;8.08;100.00;100357.59;10540772;28;20105;-60
2021/12/29 16:09:01;;;;;;;17.75;15.60;;;;;;;8.14;100.00;100349.44;10541336;28;20043;-60
2021/12/29 16:14:03;;;;;;;22.70;17.15;;;;;;;8.11;100.00;100351.38;10539145;28;20499;-59
2021/12/29 16:19:08;;;;;;;15.38;12.70;;;;;;;8.23;100.00;100339.44;10540532;28;20062;-60
2021/12/29 16:24:10;;;;;;;16.95;15.15;;;;;;;8.27;100.00;100330.50;10540049;28;20052;-59
2021/12/29 16:29:13;;;;;;;20.58;16.48;;;;;;;8.38;100.00;100341.22;10540372;28;20063;-60
2021/12/29 16:34:15;;;;;;;14.57;13.10;;;;;;;8.51;100.00;100339.63;10540161;28;20044;-59
2021/12/29 16:39:21;;;;;;;18.17;13.10;;;;;;;8.69;100.00;100347.34;10539908;28;20048;-60
2021/12/29 16:44:25;;;;;;;15.25;13.48;;;;;;;8.73;100.00;100341.03;10539745;28;20044;-59
2021/12/29 16:49:27;;;;;;;13.38;12.00;;;;;;;8.86;100.00;100343.75;10540145;28;20058;-60
2021/12/29 16:54:30;;;;;;;11.75;10.65;;;;;;;8.85;100.00;100342.94;10539583;28;20051;-59
2021/12/29 16:59:34;;;;;;;14.93;13.05;;;;;;;8.84;100.00;100343.00;10539866;28;20044;-60
2021/12/29 17:04:36;;;;;;;11.85;10.75;;;;;;;8.89;100.00;100340.97;10538195;28;20040;-59
2021/12/29 17:09:39;;;;;;;16.33;14.52;;;;;;;8.87;100.00;100335.00;10539875;28;20056;-61
2021/12/29 17:14:41;;;;;;;15.55;13.68;;;;;;;9.11;100.00;100333.59;10538866;28;20492;-60
2021/12/29 17:19:43;;;;;;;20.27;15.07;;;;;;;9.04;100.00;100339.25;10539364;28;20049;-61
2021/12/29 17:24:47;;;;;;;18.55;14.98;;;;;;;9.07;100.00;100331.25;10538241;28;20044;-60
2021/12/29 17:29:50;;;;;;;15.18;13.63;;;;;;;9.16;100.00;100340.31;10538893;28;20051;-61
2021/12/29 17:34:52;;;;;;;16.15;14.10;;;;;;;9.21;100.00;100348.72;10539009;28;20052;-61
2021/12/29 17:39:56;;;;;;;21.17;17.20;;;;;;;9.29;100.00;100363.00;10538764;28;20048;-60
2021/12/29 17:44:59;;;;;;;16.85;15.05;;;;;;;9.35;100.00;100361.81;10542022;28;20090;-61
2021/12/29 17:50:03;;;;;;;18.52;16.38;;;;;;;9.51;100.00;100393.09;10546496;28;20058;-61
2021/12/29 17:55:07;;;;;;;19.90;17.85;;;;;;;9.62;100.00;100368.94;10545903;28;20048;-62
2021/12/29 18:00:12;;;;;;;15.70;14.10;;;;;;;9.51;100.00;100348.66;10545634;28;20044;-61
2021/12/29 18:05:15;;;;;;;22.88;18.80;;;;;;;9.65;100.00;100366.97;10545452;28;20393;-61
2021/12/29 18:10:19;;;;;;;23.83;20.92;;;;;;;9.89;100.00;100382.09;10544715;28;20048;-61
2021/12/29 18:15:22;;;;;;;24.88;19.98;;;;;;;9.82;100.00;100394.72;10545043;28;20058;-61
2021/12/29 18:20:25;;;;;;;30.95;23.20;;;;;;;9.98;100.00;100406.84;10544449;28;20044;-62
2021/12/29 18:25:27;;;;;;;30.38;22.88;;;;;;;10.18;100.00;100403.00;10544510;28;20403;-61
2021/12/29 18:30:30;;;;;;;35.65;26.88;;;;;;;10.24;100.00;100402.63;10544606;28;20048;-61
2021/12/29 18:35:32;;;;;;;39.92;26.60;;;;;;;10.26;100.00;100426.09;10544710;28;20535;-61
2021/12/29 18:40:36;;;;;;;52.45;31.48;;;;;;;10.36;100.00;100411.53;10544357;28;20044;-62
2021/12/29 18:45:39;;;;;;;45.05;30.00;;;;;;;10.47;100.00;100418.69;10544339;28;20048;-62
2021/12/29 18:50:42;;;;;;;39.13;27.70;;;;;;;10.45;100.00;100431.03;10543734;28;20044;-61
2021/12/29 18:55:46;;;;;;;42.30;29.38;;;;;;;10.76;100.00;100436.03;10543238;28;20076;-61
2021/12/29 19:00:52;;;;;;;36.72;28.08;;;;;;;10.69;100.00;100446.97;10543666;28;20048;-62
2021/12/29 19:05:54;;;;;;;41.35;26.48;;;;;;;10.73;100.00;100448.47;10543287;28;20048;-61
2021/12/29 19:10:57;;;;;;;44.20;29.10;;;;;;;10.86;100.00;100438.03;10542029;28;20059;-61
2021/12/29 19:15:59;;;;;;;40.05;26.50;;;;;;;10.87;100.00;100472.00;10542666;28;20055;-62
2021/12/29 19:21:06;;;;;;;43.45;25.52;;;;;;;11.00;100.00;100477.28;10542917;28;20052;-61
2021/12/29 19:26:08;;;;;;;37.15;20.25;;;;;;;11.30;100.00;100489.34;10542306;28;20064;-61
2021/12/29 19:31:11;;;;;;;40.70;20.02;;;;;;;11.34;100.00;100482.97;10542910;28;20051;-61
2021/12/29 19:36:13;;;;;;;32.60;16.38;;;;;;;11.17;100.00;100502.41;10542149;28;20121;-61
2021/12/29 19:41:19;;;;;;;38.40;17.45;;;;;;;11.26;100.00;100522.78;10541858;28;20514;-61
2021/12/29 19:46:22;;;;;;;34.35;14.75;;;;;;;11.28;100.00;100522.66;10540360;28;20499;-61
2021/12/29 19:51:25;;;;;;;29.77;14.23;;;;;;;11.17;100.00;100528.59;10541406;28;20476;-61
2021/12/29 19:56:27;;;;;;;29.67;14.27;;;;;;;11.31;100.00;100539.06;10541355;28;20048;-61
2021/12/29 20:01:29;;;;;;;30.50;15.38;;;;;;;11.27;100.00;100568.16;10541325;28;20048;-61
2021/12/29 20:06:32;;;;;;;44.80;14.07;;;;;;;11.11;100.00;100578.78;10539987;28;20062;-60
2021/12/29 20:11:34;;;;;;;35.88;12.18;;;;;;;11.13;100.00;100593.47;10540952;28;20059;-61
2021/12/29 20:16:42;;;;;;;32.63;9.68;;;;;;;11.21;100.00;100597.38;10539276;28;20055;-61
2021/12/29 20:21:44;;;;;;;37.00;8.05;;;;;;;11.12;100.00;100604.03;10540353;28;20403;-60
2021/12/29 20:26:47;;;;;;;44.80;9.75;;;;;;;10.98;100.00;100620.63;10540184;28;20488;-61
2021/12/29 20:31:49;;;;;;;36.38;7.15;;;;;;;10.96;100.00;100628.59;10539888;28;20062;-61
2021/12/29 20:36:57;;;;;;;33.03;7.57;;;;;;;10.92;100.00;100634.94;10539731;28;20044;-60
2021/12/29 20:42:00;;;;;;;33.50;7.03;;;;;;;10.79;100.00;100644.47;10538473;28;20051;-61
2021/12/29 20:47:02;;;;;;;40.00;6.82;;;;;;;10.77;100.00;100649.78;10538379;28;20056;-61
2021/12/29 20:52:05;;;;;;;33.05;7.32;;;;;;;10.71;100.00;100650.19;10539574;28;20407;-61
2021/12/29 20:57:08;;;;;;;41.17;7.38;;;;;;;10.55;100.00;100665.94;10539996;28;20052;-61
2021/12/29 21:02:11;;;;;;;31.98;5.95;;;;;;;10.53;100.00;100680.09;10537972;28;20048;-61
2021/12/29 21:07:13;;;;;;;46.92;7.50;;;;;;;10.59;100.00;100687.56;10538718;28;20131;-61
2021/12/29 21:12:16;;;;;;;29.83;6.47;;;;;;;10.37;100.00;100695.81;10539513;28;20056;-61
2021/12/29 21:17:19;;;;;;;36.38;6.38;;;;;;;10.44;100.00;100740.81;10540676;28;20051;-61
2021/12/29 21:22:22;;;;;;;51.40;9.48;;;;;;;10.48;100.00;100750.19;10547910;28;20044;-60
2021/12/29 21:27:24;;;;;;;37.40;8.55;;;;;;;10.38;100.00;100747.25;10547649;28;20071;-60
2021/12/29 21:32:26;;;;;;;50.05;8.98;;;;;;;10.23;100.00;100770.69;10547457;28;20052;-61
2021/12/29 21:37:29;;;;;;;32.92;7.13;;;;;;;10.18;100.00;100777.13;10546637;28;20495;-61
2021/12/29 21:42:31;;;;;;;41.63;7.57;;;;;;;10.23;100.00;100790.78;10545122;28;20407;-61
2021/12/29 21:47:34;;;;;;;53.58;7.75;;;;;;;10.29;100.00;100810.53;10546428;28;20071;-60
2021/12/29 21:52:37;;;;;;;40.92;7.43;;;;;;;10.02;100.00;100825.06;10546482;28;20048;-61
2021/12/29 21:57:39;;;;;;;42.08;8.45;;;;;;;10.12;100.00;100830.66;10545048;28;20056;-61
2021/12/29 22:02:42;;;;;;;48.08;8.43;;;;;;;10.11;100.00;100839.41;10545773;28;20048;-61
2021/12/29 22:07:46;;;;;;;52.20;9.15;;;;;;;10.04;100.00;100846.75;10546316;28;20055;-61
2021/12/29 22:12:50;;;;;;;43.70;7.68;;;;;;;10.17;100.00;100840.84;10544466;28;20051;-61
2021/12/29 22:17:53;;;;;;;43.65;9.38;;;;;;;10.06;100.00;100851.06;10544725;28;20052;-61
2021/12/29 22:23:01;;;;;;;48.65;8.15;;;;;;;10.01;100.00;100867.00;10545158;28;20040;-61
2021/12/29 22:28:05;;;;;;;40.20;7.43;;;;;;;10.00;100.00;100875.75;10544859;28;20055;-61
2021/12/29 22:33:08;;;;;;;45.03;11.38;;;;;;;9.98;100.00;100873.22;10544123;28;20047;-62
2021/12/29 22:38:11;;;;;;;35.38;9.02;;;;;;;9.99;100.00;100889.78;10544363;28;20051;-61
2021/12/29 22:43:14;;;;;;;47.97;12.15;;;;;;;10.00;100.00;100894.94;10542868;28;20043;-61
2021/12/29 22:48:16;;;;;;;43.15;10.65;;;;;;;10.00;100.00;100894.94;10544375;28;20044;-61
2021/12/29 22:53:21;;;;;;;52.72;14.13;;;;;;;10.07;100.00;100898.06;10542469;28;20504;-61